sensor_id;sensor_type;location;lat;lon;timestamp;P1;durP1;ratioP1;P2;durP2;ratioP2
19087;SDS011;9676;50.916;13.352;2023-04-03T00:00:04;11.13;;;10.13;;
19087;SDS011;9676;50.916;13.352;2023-04-03T00:02:55;9.77;;;9.07;;
19087;SDS011;9676;50.916;13.352;2023-04-03T00:05:44;9.97;;;9.07;;
19087;SDS011;9676;50.916;13.352;2023-04-03T00:08:34;10.00;;;9.20;;
19087;SDS011;9676;50.916;13.352;2023-04-03T00:11:23;9.50;;;8.80;;
19087;SDS011;9676;50.916;13.352;2023-04-03T00:14:14;9.93;;;9.10;;
19087;SDS011;9676;50.916;13.352;2023-04-03T00:17:04;10.03;;;9.23;;
19087;SDS011;9676;50.916;13.352;2023-04-03T00:19:53;9.70;;;8.90;;
19087;SDS011;9676;50.916;13.352;2023-04-03T00:22:43;10.13;;;9.30;;
19087;SDS011;9676;50.916;13.352;2023-04-03T00:25:33;10.23;;;9.27;;
19087;SDS011;9676;50.916;13.352;2023-04-03T00:28:22;10.10;;;9.20;;
19087;SDS011;9676;50.916;13.352;2023-04-03T00:31:15;10.40;;;9.40;;
19087;SDS011;9676;50.916;13.352;2023-04-03T00:34:04;10.10;;;9.30;;
19087;SDS011;9676;50.916;13.352;2023-04-03T00:36:54;10.10;;;9.20;;
19087;SDS011;9676;50.916;13.352;2023-04-03T00:39:43;9.40;;;8.80;;
19087;SDS011;9676;50.916;13.352;2023-04-03T00:42:33;10.30;;;9.40;;
19087;SDS011;9676;50.916;13.352;2023-04-03T00:45:30;10.10;;;9.23;;
19087;SDS011;9676;50.916;13.352;2023-04-03T00:48:26;10.20;;;9.30;;
19087;SDS011;9676;50.916;13.352;2023-04-03T00:51:21;9.97;;;9.17;;
19087;SDS011;9676;50.916;13.352;2023-04-03T00:54:13;10.10;;;9.30;;
19087;SDS011;9676;50.916;13.352;2023-04-03T00:57:02;9.73;;;9.03;;
19087;SDS011;9676;50.916;13.352;2023-04-03T00:59:55;9.90;;;9.13;;
19087;SDS011;9676;50.916;13.352;2023-04-03T01:02:48;9.90;;;9.20;;
19087;SDS011;9676;50.916;13.352;2023-04-03T01:05:40;9.70;;;9.00;;
19087;SDS011;9676;50.916;13.352;2023-04-03T01:08:30;10.20;;;9.40;;
19087;SDS011;9676;50.916;13.352;2023-04-03T01:11:20;9.77;;;9.07;;
19087;SDS011;9676;50.916;13.352;2023-04-03T01:14:10;10.13;;;9.33;;
19087;SDS011;9676;50.916;13.352;2023-04-03T01:16:59;9.80;;;9.10;;
19087;SDS011;9676;50.916;13.352;2023-04-03T01:19:49;10.30;;;9.43;;
19087;SDS011;9676;50.916;13.352;2023-04-03T01:23:06;10.67;;;9.50;;
19087;SDS011;9676;50.916;13.352;2023-04-03T01:26:11;9.67;;;8.87;;
19087;SDS011;9676;50.916;13.352;2023-04-03T01:29:01;10.30;;;9.40;;
19087;SDS011;9676;50.916;13.352;2023-04-03T01:31:54;9.90;;;9.10;;
19087;SDS011;9676;50.916;13.352;2023-04-03T01:34:45;9.67;;;8.97;;
19087;SDS011;9676;50.916;13.352;2023-04-03T01:37:35;9.97;;;9.17;;
19087;SDS011;9676;50.916;13.352;2023-04-03T01:40:24;10.03;;;9.33;;
19087;SDS011;9676;50.916;13.352;2023-04-03T01:43:14;10.23;;;9.33;;
19087;SDS011;9676;50.916;13.352;2023-04-03T01:46:04;9.40;;;8.80;;
19087;SDS011;9676;50.916;13.352;2023-04-03T01:48:55;9.70;;;9.07;;
19087;SDS011;9676;50.916;13.352;2023-04-03T01:51:44;10.30;;;9.17;;
19087;SDS011;9676;50.916;13.352;2023-04-03T01:54:34;9.90;;;9.10;;
19087;SDS011;9676;50.916;13.352;2023-04-03T01:57:24;10.07;;;9.27;;
19087;SDS011;9676;50.916;13.352;2023-04-03T02:00:14;10.93;;;9.10;;
19087;SDS011;9676;50.916;13.352;2023-04-03T02:03:04;9.80;;;9.00;;
19087;SDS011;9676;50.916;13.352;2023-04-03T02:05:55;10.20;;;9.37;;
19087;SDS011;9676;50.916;13.352;2023-04-03T02:08:45;10.37;;;9.47;;
19087;SDS011;9676;50.916;13.352;2023-04-03T02:11:34;9.70;;;9.00;;
19087;SDS011;9676;50.916;13.352;2023-04-03T02:14:24;10.53;;;9.53;;
19087;SDS011;9676;50.916;13.352;2023-04-03T02:17:14;9.80;;;9.10;;
19087;SDS011;9676;50.916;13.352;2023-04-03T02:20:04;10.30;;;9.50;;
19087;SDS011;9676;50.916;13.352;2023-04-03T02:22:58;10.00;;;9.20;;
19087;SDS011;9676;50.916;13.352;2023-04-03T02:25:48;10.20;;;9.40;;
19087;SDS011;9676;50.916;13.352;2023-04-03T02:28:37;10.30;;;9.40;;
19087;SDS011;9676;50.916;13.352;2023-04-03T02:31:26;9.80;;;9.10;;
19087;SDS011;9676;50.916;13.352;2023-04-03T02:34:17;10.10;;;9.33;;
19087;SDS011;9676;50.916;13.352;2023-04-03T02:37:07;10.20;;;9.30;;
19087;SDS011;9676;50.916;13.352;2023-04-03T02:39:58;10.20;;;9.40;;
19087;SDS011;9676;50.916;13.352;2023-04-03T02:42:48;10.10;;;9.20;;
19087;SDS011;9676;50.916;13.352;2023-04-03T02:45:38;9.83;;;9.13;;
19087;SDS011;9676;50.916;13.352;2023-04-03T02:48:28;10.10;;;9.30;;
19087;SDS011;9676;50.916;13.352;2023-04-03T02:51:18;10.30;;;9.50;;
19087;SDS011;9676;50.916;13.352;2023-04-03T02:54:07;10.57;;;9.77;;
19087;SDS011;9676;50.916;13.352;2023-04-03T02:57:01;10.40;;;9.30;;
19087;SDS011;9676;50.916;13.352;2023-04-03T02:59:51;10.00;;;9.20;;
19087;SDS011;9676;50.916;13.352;2023-04-03T03:02:40;10.13;;;9.30;;
19087;SDS011;9676;50.916;13.352;2023-04-03T03:05:31;9.90;;;9.10;;
19087;SDS011;9676;50.916;13.352;2023-04-03T03:08:20;10.33;;;9.40;;
19087;SDS011;9676;50.916;13.352;2023-04-03T03:11:10;10.20;;;9.40;;
19087;SDS011;9676;50.916;13.352;2023-04-03T03:14:01;10.63;;;9.73;;
19087;SDS011;9676;50.916;13.352;2023-04-03T03:16:50;9.73;;;9.03;;
19087;SDS011;9676;50.916;13.352;2023-04-03T03:19:39;10.20;;;9.37;;
19087;SDS011;9676;50.916;13.352;2023-04-03T03:22:29;10.40;;;9.50;;
19087;SDS011;9676;50.916;13.352;2023-04-03T03:25:19;10.30;;;9.40;;
19087;SDS011;9676;50.916;13.352;2023-04-03T03:28:08;10.17;;;9.37;;
19087;SDS011;9676;50.916;13.352;2023-04-03T03:31:00;10.10;;;9.30;;
19087;SDS011;9676;50.916;13.352;2023-04-03T03:33:50;10.07;;;9.20;;
19087;SDS011;9676;50.916;13.352;2023-04-03T03:36:40;10.00;;;9.20;;
19087;SDS011;9676;50.916;13.352;2023-04-03T03:39:29;10.00;;;9.20;;
19087;SDS011;9676;50.916;13.352;2023-04-03T03:42:19;9.80;;;9.00;;
19087;SDS011;9676;50.916;13.352;2023-04-03T03:45:10;10.23;;;9.43;;
19087;SDS011;9676;50.916;13.352;2023-04-03T03:48:00;10.40;;;9.50;;
19087;SDS011;9676;50.916;13.352;2023-04-03T03:50:50;10.67;;;9.57;;
19087;SDS011;9676;50.916;13.352;2023-04-03T03:53:44;10.30;;;9.50;;
19087;SDS011;9676;50.916;13.352;2023-04-03T03:56:36;10.43;;;9.60;;
19087;SDS011;9676;50.916;13.352;2023-04-03T03:59:26;10.33;;;9.50;;
19087;SDS011;9676;50.916;13.352;2023-04-03T04:02:15;10.60;;;9.60;;
19087;SDS011;9676;50.916;13.352;2023-04-03T04:05:06;10.67;;;9.67;;
19087;SDS011;9676;50.916;13.352;2023-04-03T04:07:57;9.90;;;9.20;;
19087;SDS011;9676;50.916;13.352;2023-04-03T04:10:46;10.00;;;9.20;;
19087;SDS011;9676;50.916;13.352;2023-04-03T04:13:38;10.33;;;9.53;;
19087;SDS011;9676;50.916;13.352;2023-04-03T04:16:29;10.60;;;9.60;;
19087;SDS011;9676;50.916;13.352;2023-04-03T04:19:24;10.07;;;9.37;;
19087;SDS011;9676;50.916;13.352;2023-04-03T04:22:15;9.63;;;8.97;;
19087;SDS011;9676;50.916;13.352;2023-04-03T04:25:05;9.80;;;9.10;;
19087;SDS011;9676;50.916;13.352;2023-04-03T04:27:56;9.83;;;9.10;;
19087;SDS011;9676;50.916;13.352;2023-04-03T04:30:46;10.23;;;9.43;;
19087;SDS011;9676;50.916;13.352;2023-04-03T04:33:37;10.20;;;9.40;;
19087;SDS011;9676;50.916;13.352;2023-04-03T04:36:28;10.27;;;9.37;;
19087;SDS011;9676;50.916;13.352;2023-04-03T04:39:19;10.40;;;9.50;;
19087;SDS011;9676;50.916;13.352;2023-04-03T04:42:09;10.30;;;9.50;;
19087;SDS011;9676;50.916;13.352;2023-04-03T04:45:04;10.67;;;9.77;;
19087;SDS011;9676;50.916;13.352;2023-04-03T04:47:56;10.70;;;9.80;;
19087;SDS011;9676;50.916;13.352;2023-04-03T04:50:46;10.13;;;9.40;;
19087;SDS011;9676;50.916;13.352;2023-04-03T04:53:35;10.00;;;9.10;;
19087;SDS011;9676;50.916;13.352;2023-04-03T04:56:27;10.23;;;9.40;;
19087;SDS011;9676;50.916;13.352;2023-04-03T04:59:17;9.70;;;9.00;;
19087;SDS011;9676;50.916;13.352;2023-04-03T05:02:09;9.73;;;9.03;;
19087;SDS011;9676;50.916;13.352;2023-04-03T05:05:01;10.87;;;9.97;;
19087;SDS011;9676;50.916;13.352;2023-04-03T05:07:53;10.40;;;9.50;;
19087;SDS011;9676;50.916;13.352;2023-04-03T05:10:44;10.13;;;9.23;;
19087;SDS011;9676;50.916;13.352;2023-04-03T05:13:36;10.50;;;9.60;;
19087;SDS011;9676;50.916;13.352;2023-04-03T05:16:26;10.10;;;9.33;;
19087;SDS011;9676;50.916;13.352;2023-04-03T05:19:15;10.27;;;9.47;;
19087;SDS011;9676;50.916;13.352;2023-04-03T05:22:05;10.20;;;9.30;;
19087;SDS011;9676;50.916;13.352;2023-04-03T05:24:55;10.43;;;9.53;;
19087;SDS011;9676;50.916;13.352;2023-04-03T05:27:45;9.63;;;8.93;;
19087;SDS011;9676;50.916;13.352;2023-04-03T05:30:36;10.33;;;9.43;;
19087;SDS011;9676;50.916;13.352;2023-04-03T05:33:25;10.20;;;9.40;;
19087;SDS011;9676;50.916;13.352;2023-04-03T05:36:18;9.83;;;9.10;;
19087;SDS011;9676;50.916;13.352;2023-04-03T05:39:12;9.77;;;9.07;;
19087;SDS011;9676;50.916;13.352;2023-04-03T05:42:04;10.57;;;9.43;;
19087;SDS011;9676;50.916;13.352;2023-04-03T05:44:54;11.30;;;10.13;;
19087;SDS011;9676;50.916;13.352;2023-04-03T05:47:45;10.43;;;9.50;;
19087;SDS011;9676;50.916;13.352;2023-04-03T05:50:35;10.40;;;9.47;;
19087;SDS011;9676;50.916;13.352;2023-04-03T05:53:37;10.60;;;9.60;;
19087;SDS011;9676;50.916;13.352;2023-04-03T05:56:27;10.53;;;9.50;;
19087;SDS011;9676;50.916;13.352;2023-04-03T05:59:17;9.93;;;9.23;;
19087;SDS011;9676;50.916;13.352;2023-04-03T06:02:10;10.27;;;9.47;;
19087;SDS011;9676;50.916;13.352;2023-04-03T06:05:03;10.10;;;9.27;;
19087;SDS011;9676;50.916;13.352;2023-04-03T06:07:54;10.50;;;9.60;;
19087;SDS011;9676;50.916;13.352;2023-04-03T06:10:45;10.47;;;9.47;;
19087;SDS011;9676;50.916;13.352;2023-04-03T06:13:35;10.40;;;9.50;;
19087;SDS011;9676;50.916;13.352;2023-04-03T06:16:24;9.93;;;9.23;;
19087;SDS011;9676;50.916;13.352;2023-04-03T06:19:13;10.00;;;9.27;;
19087;SDS011;9676;50.916;13.352;2023-04-03T06:22:09;10.33;;;9.53;;
19087;SDS011;9676;50.916;13.352;2023-04-03T06:24:58;10.77;;;9.83;;
19087;SDS011;9676;50.916;13.352;2023-04-03T06:27:48;10.20;;;9.40;;
19087;SDS011;9676;50.916;13.352;2023-04-03T06:30:37;10.00;;;9.20;;
19087;SDS011;9676;50.916;13.352;2023-04-03T06:33:27;10.07;;;9.27;;
19087;SDS011;9676;50.916;13.352;2023-04-03T06:36:17;10.30;;;9.50;;
19087;SDS011;9676;50.916;13.352;2023-04-03T06:39:09;10.10;;;9.30;;
19087;SDS011;9676;50.916;13.352;2023-04-03T06:42:03;10.20;;;9.30;;
19087;SDS011;9676;50.916;13.352;2023-04-03T06:45:05;10.20;;;9.40;;
19087;SDS011;9676;50.916;13.352;2023-04-03T06:47:57;10.60;;;9.50;;
19087;SDS011;9676;50.916;13.352;2023-04-03T06:50:47;10.67;;;9.70;;
19087;SDS011;9676;50.916;13.352;2023-04-03T06:53:36;10.90;;;9.90;;
19087;SDS011;9676;50.916;13.352;2023-04-03T06:56:27;10.70;;;9.80;;
19087;SDS011;9676;50.916;13.352;2023-04-03T06:59:17;10.20;;;9.40;;
19087;SDS011;9676;50.916;13.352;2023-04-03T07:02:08;11.10;;;9.90;;
19087;SDS011;9676;50.916;13.352;2023-04-03T07:05:00;10.40;;;9.60;;
19087;SDS011;9676;50.916;13.352;2023-04-03T07:07:50;10.97;;;9.97;;
19087;SDS011;9676;50.916;13.352;2023-04-03T07:10:39;10.30;;;9.40;;
19087;SDS011;9676;50.916;13.352;2023-04-03T07:13:30;11.53;;;10.53;;
19087;SDS011;9676;50.916;13.352;2023-04-03T07:16:20;11.23;;;10.23;;
19087;SDS011;9676;50.916;13.352;2023-04-03T07:19:10;11.00;;;9.90;;
19087;SDS011;9676;50.916;13.352;2023-04-03T07:22:00;11.20;;;10.10;;
19087;SDS011;9676;50.916;13.352;2023-04-03T07:24:49;10.67;;;9.77;;
19087;SDS011;9676;50.916;13.352;2023-04-03T07:27:39;10.80;;;9.90;;
19087;SDS011;9676;50.916;13.352;2023-04-03T07:30:31;10.43;;;9.63;;
19087;SDS011;9676;50.916;13.352;2023-04-03T07:33:21;11.20;;;10.20;;
19087;SDS011;9676;50.916;13.352;2023-04-03T07:39:24;11.07;;;10.00;;
19087;SDS011;9676;50.916;13.352;2023-04-03T07:42:15;11.20;;;10.10;;
19087;SDS011;9676;50.916;13.352;2023-04-03T07:45:04;10.73;;;9.90;;
19087;SDS011;9676;50.916;13.352;2023-04-03T07:47:56;10.90;;;9.90;;
19087;SDS011;9676;50.916;13.352;2023-04-03T07:50:46;10.53;;;9.70;;
19087;SDS011;9676;50.916;13.352;2023-04-03T07:53:36;11.77;;;10.50;;
19087;SDS011;9676;50.916;13.352;2023-04-03T07:56:25;10.77;;;9.87;;
19087;SDS011;9676;50.916;13.352;2023-04-03T07:59:15;11.00;;;10.00;;
19087;SDS011;9676;50.916;13.352;2023-04-03T08:02:04;10.50;;;9.60;;
19087;SDS011;9676;50.916;13.352;2023-04-03T08:04:55;11.20;;;10.17;;
19087;SDS011;9676;50.916;13.352;2023-04-03T08:07:44;10.80;;;9.90;;
19087;SDS011;9676;50.916;13.352;2023-04-03T08:10:34;10.80;;;9.90;;
19087;SDS011;9676;50.916;13.352;2023-04-03T08:13:24;10.73;;;9.80;;
19087;SDS011;9676;50.916;13.352;2023-04-03T08:16:15;10.47;;;9.60;;
19087;SDS011;9676;50.916;13.352;2023-04-03T08:19:09;10.47;;;9.47;;
19087;SDS011;9676;50.916;13.352;2023-04-03T08:22:13;10.90;;;10.00;;
19087;SDS011;9676;50.916;13.352;2023-04-03T08:25:03;10.20;;;9.40;;
19087;SDS011;9676;50.916;13.352;2023-04-03T08:27:53;10.70;;;9.80;;
19087;SDS011;9676;50.916;13.352;2023-04-03T08:30:43;9.90;;;9.20;;
19087;SDS011;9676;50.916;13.352;2023-04-03T08:33:33;10.43;;;9.63;;
19087;SDS011;9676;50.916;13.352;2023-04-03T08:36:24;10.70;;;9.70;;
19087;SDS011;9676;50.916;13.352;2023-04-03T08:39:17;11.00;;;10.00;;
19087;SDS011;9676;50.916;13.352;2023-04-03T08:42:10;10.90;;;9.90;;
19087;SDS011;9676;50.916;13.352;2023-04-03T08:45:05;10.90;;;9.93;;
19087;SDS011;9676;50.916;13.352;2023-04-03T08:48:00;10.87;;;9.87;;
19087;SDS011;9676;50.916;13.352;2023-04-03T08:50:55;10.27;;;9.47;;
19087;SDS011;9676;50.916;13.352;2023-04-03T08:53:54;10.50;;;9.60;;
19087;SDS011;9676;50.916;13.352;2023-04-03T08:56:48;10.90;;;10.00;;
19087;SDS011;9676;50.916;13.352;2023-04-03T08:59:38;10.43;;;9.53;;
19087;SDS011;9676;50.916;13.352;2023-04-03T09:02:30;10.20;;;9.40;;
19087;SDS011;9676;50.916;13.352;2023-04-03T09:05:29;10.00;;;9.30;;
19087;SDS011;9676;50.916;13.352;2023-04-03T09:08:35;10.37;;;9.50;;
19087;SDS011;9676;50.916;13.352;2023-04-03T09:11:35;10.73;;;9.73;;
19087;SDS011;9676;50.916;13.352;2023-04-03T09:14:38;10.20;;;9.30;;
19087;SDS011;9676;50.916;13.352;2023-04-03T09:17:36;11.20;;;10.23;;
19087;SDS011;9676;50.916;13.352;2023-04-03T09:20:45;10.43;;;9.43;;
19087;SDS011;9676;50.916;13.352;2023-04-03T09:23:42;10.73;;;9.63;;
19087;SDS011;9676;50.916;13.352;2023-04-03T09:26:36;10.27;;;9.40;;
19087;SDS011;9676;50.916;13.352;2023-04-03T09:29:45;10.07;;;9.27;;
19087;SDS011;9676;50.916;13.352;2023-04-03T09:32:57;10.37;;;9.47;;
19087;SDS011;9676;50.916;13.352;2023-04-03T09:36:01;9.97;;;9.17;;
19087;SDS011;9676;50.916;13.352;2023-04-03T09:39:03;10.47;;;9.57;;
19087;SDS011;9676;50.916;13.352;2023-04-03T09:41:57;10.23;;;9.33;;
19087;SDS011;9676;50.916;13.352;2023-04-03T09:44:54;10.40;;;9.50;;
19087;SDS011;9676;50.916;13.352;2023-04-03T09:47:45;10.97;;;9.93;;
19087;SDS011;9676;50.916;13.352;2023-04-03T09:50:35;10.37;;;9.53;;
19087;SDS011;9676;50.916;13.352;2023-04-03T09:53:27;10.63;;;9.73;;
19087;SDS011;9676;50.916;13.352;2023-04-03T09:56:24;10.50;;;9.60;;
19087;SDS011;9676;50.916;13.352;2023-04-03T09:59:16;10.17;;;9.27;;
19087;SDS011;9676;50.916;13.352;2023-04-03T10:02:18;11.00;;;9.30;;
19087;SDS011;9676;50.916;13.352;2023-04-03T10:05:28;10.10;;;9.20;;
19087;SDS011;9676;50.916;13.352;2023-04-03T10:08:23;10.00;;;9.13;;
19087;SDS011;9676;50.916;13.352;2023-04-03T10:11:16;10.50;;;9.50;;
19087;SDS011;9676;50.916;13.352;2023-04-03T10:14:10;10.30;;;9.30;;
19087;SDS011;9676;50.916;13.352;2023-04-03T10:17:10;10.00;;;9.10;;
19087;SDS011;9676;50.916;13.352;2023-04-03T10:20:16;10.43;;;9.30;;
19087;SDS011;9676;50.916;13.352;2023-04-03T10:23:24;9.70;;;8.90;;
19087;SDS011;9676;50.916;13.352;2023-04-03T10:26:24;10.20;;;9.20;;
19087;SDS011;9676;50.916;13.352;2023-04-03T10:29:27;10.03;;;9.13;;
19087;SDS011;9676;50.916;13.352;2023-04-03T10:32:35;10.23;;;9.33;;
19087;SDS011;9676;50.916;13.352;2023-04-03T10:35:44;10.20;;;9.40;;
19087;SDS011;9676;50.916;13.352;2023-04-03T10:38:51;11.00;;;9.90;;
19087;SDS011;9676;50.916;13.352;2023-04-03T10:41:52;11.13;;;10.03;;
19087;SDS011;9676;50.916;13.352;2023-04-03T10:45:10;10.70;;;9.70;;
19087;SDS011;9676;50.916;13.352;2023-04-03T10:48:13;10.13;;;9.23;;
19087;SDS011;9676;50.916;13.352;2023-04-03T10:51:16;10.17;;;9.27;;
19087;SDS011;9676;50.916;13.352;2023-04-03T10:54:16;9.80;;;9.00;;
19087;SDS011;9676;50.916;13.352;2023-04-03T10:57:10;10.00;;;9.13;;
19087;SDS011;9676;50.916;13.352;2023-04-03T11:00:01;9.73;;;8.90;;
19087;SDS011;9676;50.916;13.352;2023-04-03T11:02:56;9.60;;;8.90;;
19087;SDS011;9676;50.916;13.352;2023-04-03T11:05:51;9.67;;;8.90;;
19087;SDS011;9676;50.916;13.352;2023-04-03T11:08:44;9.57;;;8.87;;
19087;SDS011;9676;50.916;13.352;2023-04-03T11:11:39;10.00;;;9.10;;
19087;SDS011;9676;50.916;13.352;2023-04-03T11:14:30;9.50;;;8.80;;
19087;SDS011;9676;50.916;13.352;2023-04-03T11:17:26;9.60;;;8.80;;
19087;SDS011;9676;50.916;13.352;2023-04-03T11:20:23;9.90;;;9.10;;
19087;SDS011;9676;50.916;13.352;2023-04-03T11:23:23;9.87;;;9.03;;
19087;SDS011;9676;50.916;13.352;2023-04-03T11:26:22;9.60;;;8.90;;
19087;SDS011;9676;50.916;13.352;2023-04-03T11:29:17;9.40;;;8.70;;
19087;SDS011;9676;50.916;13.352;2023-04-03T11:32:28;9.83;;;9.03;;
19087;SDS011;9676;50.916;13.352;2023-04-03T11:35:48;9.60;;;8.90;;
19087;SDS011;9676;50.916;13.352;2023-04-03T11:38:43;9.90;;;9.00;;
19087;SDS011;9676;50.916;13.352;2023-04-03T11:41:36;10.10;;;9.23;;
19087;SDS011;9676;50.916;13.352;2023-04-03T11:44:32;9.80;;;9.00;;
19087;SDS011;9676;50.916;13.352;2023-04-03T11:50:42;10.37;;;9.30;;
19087;SDS011;9676;50.916;13.352;2023-04-03T11:53:34;10.03;;;9.23;;
19087;SDS011;9676;50.916;13.352;2023-04-03T11:56:28;9.73;;;8.93;;
19087;SDS011;9676;50.916;13.352;2023-04-03T11:59:23;9.50;;;8.80;;
19087;SDS011;9676;50.916;13.352;2023-04-03T12:05:39;9.87;;;9.07;;
19087;SDS011;9676;50.916;13.352;2023-04-03T12:08:29;9.67;;;8.97;;
19087;SDS011;9676;50.916;13.352;2023-04-03T12:11:34;9.70;;;8.87;;
19087;SDS011;9676;50.916;13.352;2023-04-03T12:14:25;9.90;;;9.10;;
19087;SDS011;9676;50.916;13.352;2023-04-03T12:21:02;9.77;;;9.00;;
19087;SDS011;9676;50.916;13.352;2023-04-03T12:23:58;9.70;;;8.90;;
19087;SDS011;9676;50.916;13.352;2023-04-03T12:27:24;9.57;;;8.87;;
19087;SDS011;9676;50.916;13.352;2023-04-03T12:30:23;9.70;;;8.90;;
19087;SDS011;9676;50.916;13.352;2023-04-03T12:33:20;9.50;;;8.80;;
19087;SDS011;9676;50.916;13.352;2023-04-03T12:36:23;9.53;;;8.80;;
19087;SDS011;9676;50.916;13.352;2023-04-03T12:39:34;9.30;;;8.60;;
19087;SDS011;9676;50.916;13.352;2023-04-03T12:42:47;9.50;;;8.80;;
19087;SDS011;9676;50.916;13.352;2023-04-03T12:45:58;9.90;;;9.03;;
19087;SDS011;9676;50.916;13.352;2023-04-03T12:48:54;9.63;;;8.83;;
19087;SDS011;9676;50.916;13.352;2023-04-03T12:51:45;9.53;;;8.80;;
19087;SDS011;9676;50.916;13.352;2023-04-03T12:54:36;10.07;;;9.20;;
19087;SDS011;9676;50.916;13.352;2023-04-03T12:57:27;9.90;;;9.00;;
19087;SDS011;9676;50.916;13.352;2023-04-03T13:00:31;9.53;;;8.83;;
19087;SDS011;9676;50.916;13.352;2023-04-03T13:03:26;9.73;;;8.93;;
19087;SDS011;9676;50.916;13.352;2023-04-03T13:06:17;9.77;;;8.97;;
19087;SDS011;9676;50.916;13.352;2023-04-03T13:09:18;9.80;;;9.00;;
19087;SDS011;9676;50.916;13.352;2023-04-03T13:12:11;9.53;;;8.83;;
19087;SDS011;9676;50.916;13.352;2023-04-03T13:15:12;9.63;;;8.90;;
19087;SDS011;9676;50.916;13.352;2023-04-03T13:18:10;9.30;;;8.70;;
19087;SDS011;9676;50.916;13.352;2023-04-03T13:21:17;9.97;;;9.07;;
19087;SDS011;9676;50.916;13.352;2023-04-03T13:24:10;9.80;;;8.90;;
19087;SDS011;9676;50.916;13.352;2023-04-03T13:27:02;9.60;;;8.90;;
19087;SDS011;9676;50.916;13.352;2023-04-03T13:29:53;9.80;;;9.00;;
19087;SDS011;9676;50.916;13.352;2023-04-03T13:32:46;9.57;;;8.77;;
19087;SDS011;9676;50.916;13.352;2023-04-03T13:35:38;9.80;;;9.00;;
19087;SDS011;9676;50.916;13.352;2023-04-03T13:38:29;9.40;;;8.70;;
19087;SDS011;9676;50.916;13.352;2023-04-03T13:41:24;9.60;;;8.80;;
19087;SDS011;9676;50.916;13.352;2023-04-03T13:44:24;9.97;;;9.17;;
19087;SDS011;9676;50.916;13.352;2023-04-03T13:47:19;9.53;;;8.83;;
19087;SDS011;9676;50.916;13.352;2023-04-03T13:50:14;9.50;;;8.80;;
19087;SDS011;9676;50.916;13.352;2023-04-03T13:53:10;9.90;;;9.10;;
19087;SDS011;9676;50.916;13.352;2023-04-03T13:56:07;9.90;;;9.10;;
19087;SDS011;9676;50.916;13.352;2023-04-03T13:59:06;9.83;;;9.03;;
19087;SDS011;9676;50.916;13.352;2023-04-03T14:02:16;10.00;;;9.20;;
19087;SDS011;9676;50.916;13.352;2023-04-03T14:05:10;9.83;;;9.00;;
19087;SDS011;9676;50.916;13.352;2023-04-03T14:07:59;10.30;;;9.30;;
19087;SDS011;9676;50.916;13.352;2023-04-03T14:10:50;9.70;;;9.00;;
19087;SDS011;9676;50.916;13.352;2023-04-03T14:13:40;9.80;;;8.90;;
19087;SDS011;9676;50.916;13.352;2023-04-03T14:16:31;10.10;;;9.23;;
19087;SDS011;9676;50.916;13.352;2023-04-03T14:19:27;9.73;;;9.00;;
19087;SDS011;9676;50.916;13.352;2023-04-03T14:22:20;9.80;;;8.90;;
19087;SDS011;9676;50.916;13.352;2023-04-03T14:25:12;9.93;;;9.03;;
19087;SDS011;9676;50.916;13.352;2023-04-03T14:28:07;10.23;;;9.27;;
19087;SDS011;9676;50.916;13.352;2023-04-03T14:31:04;9.80;;;9.00;;
19087;SDS011;9676;50.916;13.352;2023-04-03T14:33:54;9.97;;;9.17;;
19087;SDS011;9676;50.916;13.352;2023-04-03T14:36:44;9.80;;;9.10;;
19087;SDS011;9676;50.916;13.352;2023-04-03T14:39:34;9.80;;;9.00;;
19087;SDS011;9676;50.916;13.352;2023-04-03T14:42:24;10.53;;;9.63;;
19087;SDS011;9676;50.916;13.352;2023-04-03T14:45:17;10.20;;;9.30;;
19087;SDS011;9676;50.916;13.352;2023-04-03T14:48:09;9.60;;;8.80;;
19087;SDS011;9676;50.916;13.352;2023-04-03T14:51:05;9.77;;;9.03;;
19087;SDS011;9676;50.916;13.352;2023-04-03T14:53:54;10.13;;;9.23;;
19087;SDS011;9676;50.916;13.352;2023-04-03T14:56:44;9.80;;;9.00;;
19087;SDS011;9676;50.916;13.352;2023-04-03T14:59:34;9.50;;;8.80;;
19087;SDS011;9676;50.916;13.352;2023-04-03T15:02:26;10.00;;;9.20;;
19087;SDS011;9676;50.916;13.352;2023-04-03T15:05:18;9.83;;;9.10;;
19087;SDS011;9676;50.916;13.352;2023-04-03T15:08:12;10.03;;;9.20;;
19087;SDS011;9676;50.916;13.352;2023-04-03T15:11:08;9.70;;;8.90;;
19087;SDS011;9676;50.916;13.352;2023-04-03T15:13:58;9.73;;;8.93;;
19087;SDS011;9676;50.916;13.352;2023-04-03T15:16:48;10.40;;;9.40;;
19087;SDS011;9676;50.916;13.352;2023-04-03T15:19:39;9.70;;;9.00;;
19087;SDS011;9676;50.916;13.352;2023-04-03T15:22:28;10.37;;;9.33;;
19087;SDS011;9676;50.916;13.352;2023-04-03T15:25:18;9.67;;;8.93;;
19087;SDS011;9676;50.916;13.352;2023-04-03T15:28:08;9.83;;;9.00;;
19087;SDS011;9676;50.916;13.352;2023-04-03T15:31:05;9.80;;;9.00;;
19087;SDS011;9676;50.916;13.352;2023-04-03T15:33:55;9.80;;;9.00;;
19087;SDS011;9676;50.916;13.352;2023-04-03T15:36:46;9.70;;;9.00;;
19087;SDS011;9676;50.916;13.352;2023-04-03T15:39:35;9.83;;;9.03;;
19087;SDS011;9676;50.916;13.352;2023-04-03T15:42:25;10.00;;;9.10;;
19087;SDS011;9676;50.916;13.352;2023-04-03T15:45:14;10.07;;;9.27;;
19087;SDS011;9676;50.916;13.352;2023-04-03T15:48:04;10.00;;;9.10;;
19087;SDS011;9676;50.916;13.352;2023-04-03T15:50:54;10.03;;;9.03;;
19087;SDS011;9676;50.916;13.352;2023-04-03T15:53:46;10.00;;;9.20;;
19087;SDS011;9676;50.916;13.352;2023-04-03T15:56:36;9.70;;;9.00;;
19087;SDS011;9676;50.916;13.352;2023-04-03T15:59:25;9.77;;;9.07;;
19087;SDS011;9676;50.916;13.352;2023-04-03T16:02:16;9.87;;;9.00;;
19087;SDS011;9676;50.916;13.352;2023-04-03T16:05:06;9.80;;;9.00;;
19087;SDS011;9676;50.916;13.352;2023-04-03T16:07:56;9.93;;;9.20;;
19087;SDS011;9676;50.916;13.352;2023-04-03T16:10:48;10.00;;;9.20;;
19087;SDS011;9676;50.916;13.352;2023-04-03T16:13:37;9.57;;;8.87;;
19087;SDS011;9676;50.916;13.352;2023-04-03T16:16:27;9.53;;;8.87;;
19087;SDS011;9676;50.916;13.352;2023-04-03T16:19:18;9.70;;;8.90;;
19087;SDS011;9676;50.916;13.352;2023-04-03T16:22:08;9.67;;;8.90;;
19087;SDS011;9676;50.916;13.352;2023-04-03T16:24:58;9.70;;;8.90;;
19087;SDS011;9676;50.916;13.352;2023-04-03T16:27:49;9.53;;;8.80;;
19087;SDS011;9676;50.916;13.352;2023-04-03T16:33:29;9.60;;;8.90;;
19087;SDS011;9676;50.916;13.352;2023-04-03T16:36:19;9.50;;;8.90;;
19087;SDS011;9676;50.916;13.352;2023-04-03T16:39:08;9.90;;;9.03;;
19087;SDS011;9676;50.916;13.352;2023-04-03T16:41:58;10.00;;;9.20;;
19087;SDS011;9676;50.916;13.352;2023-04-03T16:44:48;10.10;;;9.20;;
19087;SDS011;9676;50.916;13.352;2023-04-03T16:47:38;9.90;;;9.10;;
19087;SDS011;9676;50.916;13.352;2023-04-03T16:50:27;10.00;;;9.20;;
19087;SDS011;9676;50.916;13.352;2023-04-03T16:53:17;9.50;;;8.90;;
19087;SDS011;9676;50.916;13.352;2023-04-03T16:56:06;9.87;;;9.07;;
19087;SDS011;9676;50.916;13.352;2023-04-03T16:58:55;9.93;;;9.13;;
19087;SDS011;9676;50.916;13.352;2023-04-03T17:01:46;9.77;;;9.07;;
19087;SDS011;9676;50.916;13.352;2023-04-03T17:04:36;9.90;;;9.20;;
19087;SDS011;9676;50.916;13.352;2023-04-03T17:07:25;9.67;;;8.97;;
19087;SDS011;9676;50.916;13.352;2023-04-03T17:10:15;9.57;;;8.97;;
19087;SDS011;9676;50.916;13.352;2023-04-03T17:13:04;9.50;;;8.90;;
19087;SDS011;9676;50.916;13.352;2023-04-03T17:15:53;9.80;;;9.00;;
19087;SDS011;9676;50.916;13.352;2023-04-03T17:18:44;9.77;;;9.10;;
19087;SDS011;9676;50.916;13.352;2023-04-03T17:21:35;9.60;;;8.90;;
19087;SDS011;9676;50.916;13.352;2023-04-03T17:24:24;9.60;;;8.90;;
19087;SDS011;9676;50.916;13.352;2023-04-03T17:27:14;9.80;;;9.10;;